sensor_id;sensor_type;location;lat;lon;timestamp;P1;durP1;ratioP1;P2;durP2;ratioP2
1380;SDS011;684;48.342;10.096;2022-09-21T00:01:23;12.73;;;7.80;;
1380;SDS011;684;48.342;10.096;2022-09-21T00:03:51;15.33;;;8.37;;
1380;SDS011;684;48.342;10.096;2022-09-21T00:06:20;13.60;;;8.13;;
1380;SDS011;684;48.342;10.096;2022-09-21T00:08:48;12.03;;;8.57;;
1380;SDS011;684;48.342;10.096;2022-09-21T00:11:16;18.97;;;8.80;;
1380;SDS011;684;48.342;10.096;2022-09-21T00:13:44;13.57;;;8.47;;
1380;SDS011;684;48.342;10.096;2022-09-21T00:16:11;14.93;;;8.60;;
1380;SDS011;684;48.342;10.096;2022-09-21T00:18:41;15.23;;;9.73;;
1380;SDS011;684;48.342;10.096;2022-09-21T00:21:09;12.77;;;7.77;;
1380;SDS011;684;48.342;10.096;2022-09-21T00:23:38;15.37;;;8.60;;
1380;SDS011;684;48.342;10.096;2022-09-21T00:26:06;12.80;;;7.93;;
1380;SDS011;684;48.342;10.096;2022-09-21T00:28:35;12.63;;;7.93;;
1380;SDS011;684;48.342;10.096;2022-09-21T00:31:03;12.80;;;7.50;;
1380;SDS011;684;48.342;10.096;2022-09-21T00:33:30;12.33;;;8.30;;
1380;SDS011;684;48.342;10.096;2022-09-21T00:36:02;13.43;;;9.67;;
1380;SDS011;684;48.342;10.096;2022-09-21T00:38:29;16.40;;;9.10;;
1380;SDS011;684;48.342;10.096;2022-09-21T00:40:56;15.47;;;9.33;;
1380;SDS011;684;48.342;10.096;2022-09-21T00:43:23;14.07;;;8.70;;
1380;SDS011;684;48.342;10.096;2022-09-21T00:45:49;12.77;;;8.00;;
1380;SDS011;684;48.342;10.096;2022-09-21T00:48:24;14.67;;;9.30;;
1380;SDS011;684;48.342;10.096;2022-09-21T00:50:51;11.43;;;8.00;;
1380;SDS011;684;48.342;10.096;2022-09-21T00:53:22;12.90;;;7.73;;
1380;SDS011;684;48.342;10.096;2022-09-21T00:55:49;13.93;;;7.83;;
1380;SDS011;684;48.342;10.096;2022-09-21T00:58:21;12.60;;;7.80;;
1380;SDS011;684;48.342;10.096;2022-09-21T01:00:51;13.00;;;7.53;;
1380;SDS011;684;48.342;10.096;2022-09-21T01:03:18;13.90;;;7.40;;
1380;SDS011;684;48.342;10.096;2022-09-21T01:05:46;10.80;;;7.30;;
1380;SDS011;684;48.342;10.096;2022-09-21T01:08:13;13.93;;;8.20;;
1380;SDS011;684;48.342;10.096;2022-09-21T01:10:45;14.40;;;9.03;;
1380;SDS011;684;48.342;10.096;2022-09-21T01:13:29;13.83;;;9.73;;
1380;SDS011;684;48.342;10.096;2022-09-21T01:16:10;20.07;;;8.60;;
1380;SDS011;684;48.342;10.096;2022-09-21T01:18:42;14.60;;;8.50;;
1380;SDS011;684;48.342;10.096;2022-09-21T01:21:19;15.57;;;9.10;;
1380;SDS011;684;48.342;10.096;2022-09-21T01:26:55;11.87;;;8.20;;
1380;SDS011;684;48.342;10.096;2022-09-21T01:29:50;12.33;;;7.73;;
1380;SDS011;684;48.342;10.096;2022-09-21T01:32:21;15.27;;;8.60;;
1380;SDS011;684;48.342;10.096;2022-09-21T01:34:52;18.60;;;9.43;;
1380;SDS011;684;48.342;10.096;2022-09-21T01:37:25;22.83;;;10.03;;
1380;SDS011;684;48.342;10.096;2022-09-21T01:39:58;18.83;;;9.90;;
1380;SDS011;684;48.342;10.096;2022-09-21T01:42:28;21.47;;;11.30;;
1380;SDS011;684;48.342;10.096;2022-09-21T01:44:57;21.80;;;9.87;;
1380;SDS011;684;48.342;10.096;2022-09-21T01:47:28;12.63;;;8.80;;
1380;SDS011;684;48.342;10.096;2022-09-21T01:49:56;13.80;;;8.00;;
1380;SDS011;684;48.342;10.096;2022-09-21T01:52:27;10.53;;;6.43;;
1380;SDS011;684;48.342;10.096;2022-09-21T01:54:59;8.50;;;5.60;;
1380;SDS011;684;48.342;10.096;2022-09-21T01:57:30;14.33;;;6.37;;
1380;SDS011;684;48.342;10.096;2022-09-21T02:00:07;11.33;;;7.30;;
1380;SDS011;684;48.342;10.096;2022-09-21T02:02:37;12.50;;;8.30;;
1380;SDS011;684;48.342;10.096;2022-09-21T02:05:08;12.00;;;7.77;;
1380;SDS011;684;48.342;10.096;2022-09-21T02:07:37;12.33;;;6.97;;
1380;SDS011;684;48.342;10.096;2022-09-21T02:10:05;10.90;;;7.17;;
1380;SDS011;684;48.342;10.096;2022-09-21T02:12:34;13.10;;;7.60;;
1380;SDS011;684;48.342;10.096;2022-09-21T02:15:01;10.73;;;6.67;;
1380;SDS011;684;48.342;10.096;2022-09-21T02:17:35;12.93;;;6.87;;
1380;SDS011;684;48.342;10.096;2022-09-21T02:20:12;11.00;;;7.23;;
1380;SDS011;684;48.342;10.096;2022-09-21T02:22:49;12.20;;;7.60;;
1380;SDS011;684;48.342;10.096;2022-09-21T02:25:27;12.80;;;7.23;;
1380;SDS011;684;48.342;10.096;2022-09-21T02:28:04;15.13;;;7.80;;
1380;SDS011;684;48.342;10.096;2022-09-21T02:30:34;15.50;;;9.00;;
1380;SDS011;684;48.342;10.096;2022-09-21T02:33:07;14.60;;;8.93;;
1380;SDS011;684;48.342;10.096;2022-09-21T02:35:39;15.40;;;8.70;;
1380;SDS011;684;48.342;10.096;2022-09-21T02:38:10;19.33;;;9.30;;
1380;SDS011;684;48.342;10.096;2022-09-21T02:40:44;13.20;;;8.03;;
1380;SDS011;684;48.342;10.096;2022-09-21T02:43:18;14.33;;;7.80;;
1380;SDS011;684;48.342;10.096;2022-09-21T02:45:49;13.20;;;8.63;;
1380;SDS011;684;48.342;10.096;2022-09-21T02:48:20;15.77;;;8.13;;
1380;SDS011;684;48.342;10.096;2022-09-21T02:50:51;14.73;;;8.43;;
1380;SDS011;684;48.342;10.096;2022-09-21T02:53:20;15.77;;;8.10;;
1380;SDS011;684;48.342;10.096;2022-09-21T02:55:50;13.33;;;8.00;;
1380;SDS011;684;48.342;10.096;2022-09-21T02:58:18;11.53;;;7.23;;
1380;SDS011;684;48.342;10.096;2022-09-21T03:00:50;21.50;;;7.77;;
1380;SDS011;684;48.342;10.096;2022-09-21T03:03:17;13.00;;;7.20;;
1380;SDS011;684;48.342;10.096;2022-09-21T03:05:47;13.40;;;8.37;;
1380;SDS011;684;48.342;10.096;2022-09-21T03:08:16;14.40;;;8.60;;
1380;SDS011;684;48.342;10.096;2022-09-21T03:10:43;16.37;;;7.80;;
1380;SDS011;684;48.342;10.096;2022-09-21T03:13:11;12.23;;;8.00;;
1380;SDS011;684;48.342;10.096;2022-09-21T03:15:38;12.30;;;8.67;;
1380;SDS011;684;48.342;10.096;2022-09-21T03:18:07;14.70;;;8.60;;
1380;SDS011;684;48.342;10.096;2022-09-21T03:20:36;16.60;;;8.50;;
1380;SDS011;684;48.342;10.096;2022-09-21T03:23:04;16.03;;;9.50;;
1380;SDS011;684;48.342;10.096;2022-09-21T03:25:31;13.93;;;9.27;;
1380;SDS011;684;48.342;10.096;2022-09-21T03:27:58;17.97;;;8.40;;
1380;SDS011;684;48.342;10.096;2022-09-21T03:30:25;13.37;;;7.50;;
1380;SDS011;684;48.342;10.096;2022-09-21T03:32:53;13.30;;;7.83;;
1380;SDS011;684;48.342;10.096;2022-09-21T03:35:21;13.03;;;7.47;;
1380;SDS011;684;48.342;10.096;2022-09-21T03:37:50;12.93;;;6.80;;
1380;SDS011;684;48.342;10.096;2022-09-21T03:40:19;11.83;;;7.07;;
1380;SDS011;684;48.342;10.096;2022-09-21T03:42:45;11.13;;;7.50;;
1380;SDS011;684;48.342;10.096;2022-09-21T03:45:12;12.17;;;7.93;;
1380;SDS011;684;48.342;10.096;2022-09-21T03:47:39;13.00;;;7.57;;
1380;SDS011;684;48.342;10.096;2022-09-21T03:50:06;15.80;;;7.90;;
1380;SDS011;684;48.342;10.096;2022-09-21T03:52:36;19.93;;;9.13;;
1380;SDS011;684;48.342;10.096;2022-09-21T03:55:05;15.43;;;8.50;;
1380;SDS011;684;48.342;10.096;2022-09-21T03:57:33;23.10;;;8.63;;
1380;SDS011;684;48.342;10.096;2022-09-21T04:00:00;28.23;;;11.77;;
1380;SDS011;684;48.342;10.096;2022-09-21T04:02:28;23.00;;;10.60;;
1380;SDS011;684;48.342;10.096;2022-09-21T04:04:56;34.33;;;10.73;;
1380;SDS011;684;48.342;10.096;2022-09-21T04:07:22;32.37;;;11.50;;
1380;SDS011;684;48.342;10.096;2022-09-21T04:09:50;24.80;;;11.23;;
1380;SDS011;684;48.342;10.096;2022-09-21T04:12:21;28.47;;;11.50;;
1380;SDS011;684;48.342;10.096;2022-09-21T04:14:47;23.50;;;10.93;;
1380;SDS011;684;48.342;10.096;2022-09-21T04:17:14;21.40;;;9.77;;
1380;SDS011;684;48.342;10.096;2022-09-21T04:19:41;20.30;;;11.33;;
1380;SDS011;684;48.342;10.096;2022-09-21T04:22:09;21.60;;;10.27;;
1380;SDS011;684;48.342;10.096;2022-09-21T04:24:37;19.60;;;10.30;;
1380;SDS011;684;48.342;10.096;2022-09-21T04:27:05;22.10;;;10.57;;
1380;SDS011;684;48.342;10.096;2022-09-21T04:29:33;17.93;;;9.80;;
1380;SDS011;684;48.342;10.096;2022-09-21T04:32:00;16.53;;;9.33;;
1380;SDS011;684;48.342;10.096;2022-09-21T04:34:27;16.90;;;9.43;;
1380;SDS011;684;48.342;10.096;2022-09-21T04:36:55;19.33;;;9.60;;
1380;SDS011;684;48.342;10.096;2022-09-21T04:39:22;15.33;;;8.53;;
1380;SDS011;684;48.342;10.096;2022-09-21T04:41:49;18.00;;;8.83;;
1380;SDS011;684;48.342;10.096;2022-09-21T04:44:16;14.00;;;8.80;;
1380;SDS011;684;48.342;10.096;2022-09-21T04:46:44;18.70;;;8.57;;
1380;SDS011;684;48.342;10.096;2022-09-21T04:49:11;15.23;;;9.10;;
1380;SDS011;684;48.342;10.096;2022-09-21T04:51:38;19.97;;;10.10;;
1380;SDS011;684;48.342;10.096;2022-09-21T04:54:05;25.73;;;10.80;;
1380;SDS011;684;48.342;10.096;2022-09-21T04:56:32;16.83;;;9.57;;
1380;SDS011;684;48.342;10.096;2022-09-21T04:58:59;20.83;;;10.33;;
1380;SDS011;684;48.342;10.096;2022-09-21T05:01:26;15.80;;;8.90;;
1380;SDS011;684;48.342;10.096;2022-09-21T05:04:04;14.97;;;9.83;;
1380;SDS011;684;48.342;10.096;2022-09-21T05:06:31;14.70;;;8.10;;
1380;SDS011;684;48.342;10.096;2022-09-21T05:08:59;15.30;;;9.03;;
1380;SDS011;684;48.342;10.096;2022-09-21T05:11:43;17.63;;;8.63;;
1380;SDS011;684;48.342;10.096;2022-09-21T05:14:10;13.30;;;8.20;;
1380;SDS011;684;48.342;10.096;2022-09-21T05:16:37;13.70;;;7.90;;
1380;SDS011;684;48.342;10.096;2022-09-21T05:19:06;22.37;;;7.80;;
1380;SDS011;684;48.342;10.096;2022-09-21T05:21:32;12.20;;;6.43;;
1380;SDS011;684;48.342;10.096;2022-09-21T05:24:00;8.83;;;6.23;;
1380;SDS011;684;48.342;10.096;2022-09-21T05:26:27;10.90;;;7.60;;
1380;SDS011;684;48.342;10.096;2022-09-21T05:28:54;11.80;;;7.93;;
1380;SDS011;684;48.342;10.096;2022-09-21T05:31:34;12.20;;;7.03;;
1380;SDS011;684;48.342;10.096;2022-09-21T05:34:16;10.20;;;6.87;;
1380;SDS011;684;48.342;10.096;2022-09-21T05:36:55;11.60;;;7.00;;
1380;SDS011;684;48.342;10.096;2022-09-21T05:39:26;20.23;;;6.33;;
1380;SDS011;684;48.342;10.096;2022-09-21T05:41:54;9.10;;;6.37;;
1380;SDS011;684;48.342;10.096;2022-09-21T05:44:21;16.87;;;7.67;;
1380;SDS011;684;48.342;10.096;2022-09-21T05:46:49;26.13;;;9.40;;
1380;SDS011;684;48.342;10.096;2022-09-21T05:49:27;18.87;;;9.10;;
1380;SDS011;684;48.342;10.096;2022-09-21T05:52:02;13.20;;;7.77;;
1380;SDS011;684;48.342;10.096;2022-09-21T05:54:43;12.90;;;9.73;;
1380;SDS011;684;48.342;10.096;2022-09-21T05:57:21;20.80;;;7.27;;
1380;SDS011;684;48.342;10.096;2022-09-21T05:59:57;16.43;;;5.93;;
1380;SDS011;684;48.342;10.096;2022-09-21T06:02:42;14.90;;;6.10;;
1380;SDS011;684;48.342;10.096;2022-09-21T06:05:21;11.90;;;5.20;;
1380;SDS011;684;48.342;10.096;2022-09-21T06:07:48;15.27;;;4.63;;
1380;SDS011;684;48.342;10.096;2022-09-21T06:10:15;7.30;;;4.03;;
1380;SDS011;684;48.342;10.096;2022-09-21T06:12:42;11.57;;;4.27;;
1380;SDS011;684;48.342;10.096;2022-09-21T06:15:09;7.23;;;4.50;;
1380;SDS011;684;48.342;10.096;2022-09-21T06:17:38;8.90;;;4.17;;
1380;SDS011;684;48.342;10.096;2022-09-21T06:20:05;7.87;;;4.20;;
1380;SDS011;684;48.342;10.096;2022-09-21T06:22:34;7.27;;;4.00;;
1380;SDS011;684;48.342;10.096;2022-09-21T06:25:01;8.43;;;4.10;;
1380;SDS011;684;48.342;10.096;2022-09-21T06:27:28;5.77;;;3.50;;
1380;SDS011;684;48.342;10.096;2022-09-21T06:29:54;6.37;;;3.93;;
1380;SDS011;684;48.342;10.096;2022-09-21T06:32:21;6.70;;;3.77;;
1380;SDS011;684;48.342;10.096;2022-09-21T06:34:48;6.30;;;3.93;;
1380;SDS011;684;48.342;10.096;2022-09-21T06:37:15;9.07;;;4.30;;
1380;SDS011;684;48.342;10.096;2022-09-21T06:39:43;6.53;;;3.93;;
1380;SDS011;684;48.342;10.096;2022-09-21T06:42:10;7.30;;;3.87;;
1380;SDS011;684;48.342;10.096;2022-09-21T06:44:37;10.70;;;5.07;;
1380;SDS011;684;48.342;10.096;2022-09-21T06:47:04;11.33;;;6.03;;
1380;SDS011;684;48.342;10.096;2022-09-21T06:49:30;7.23;;;4.50;;
1380;SDS011;684;48.342;10.096;2022-09-21T06:51:57;19.50;;;5.70;;
1380;SDS011;684;48.342;10.096;2022-09-21T06:54:24;11.87;;;6.37;;
1380;SDS011;684;48.342;10.096;2022-09-21T06:56:52;14.77;;;6.27;;
1380;SDS011;684;48.342;10.096;2022-09-21T06:59:19;15.67;;;8.40;;
1380;SDS011;684;48.342;10.096;2022-09-21T07:01:45;44.03;;;6.83;;
1380;SDS011;684;48.342;10.096;2022-09-21T07:04:12;13.50;;;6.33;;
1380;SDS011;684;48.342;10.096;2022-09-21T07:06:39;14.33;;;6.30;;
1380;SDS011;684;48.342;10.096;2022-09-21T07:09:06;28.40;;;6.87;;
1380;SDS011;684;48.342;10.096;2022-09-21T07:11:32;17.10;;;6.13;;
1380;SDS011;684;48.342;10.096;2022-09-21T07:14:00;17.63;;;5.40;;
1380;SDS011;684;48.342;10.096;2022-09-21T07:16:28;11.53;;;6.30;;
1380;SDS011;684;48.342;10.096;2022-09-21T07:18:55;21.27;;;5.40;;
1380;SDS011;684;48.342;10.096;2022-09-21T07:21:21;13.20;;;5.17;;
1380;SDS011;684;48.342;10.096;2022-09-21T07:23:48;14.83;;;5.60;;
1380;SDS011;684;48.342;10.096;2022-09-21T07:26:15;13.33;;;4.80;;
1380;SDS011;684;48.342;10.096;2022-09-21T07:28:42;14.03;;;5.87;;
1380;SDS011;684;48.342;10.096;2022-09-21T07:31:11;15.30;;;5.50;;
1380;SDS011;684;48.342;10.096;2022-09-21T07:33:39;7.50;;;4.60;;
1380;SDS011;684;48.342;10.096;2022-09-21T07:36:07;9.50;;;4.93;;
1380;SDS011;684;48.342;10.096;2022-09-21T07:38:35;13.27;;;5.50;;
1380;SDS011;684;48.342;10.096;2022-09-21T07:41:04;14.00;;;5.80;;
1380;SDS011;684;48.342;10.096;2022-09-21T07:43:32;10.27;;;5.57;;
1380;SDS011;684;48.342;10.096;2022-09-21T07:45:59;7.57;;;5.20;;
1380;SDS011;684;48.342;10.096;2022-09-21T07:48:28;10.90;;;5.90;;
1380;SDS011;684;48.342;10.096;2022-09-21T07:50:59;14.50;;;7.33;;
1380;SDS011;684;48.342;10.096;2022-09-21T07:53:28;7.80;;;5.03;;
1380;SDS011;684;48.342;10.096;2022-09-21T07:55:59;7.80;;;5.23;;
1380;SDS011;684;48.342;10.096;2022-09-21T07:58:26;8.00;;;5.10;;
1380;SDS011;684;48.342;10.096;2022-09-21T08:01:10;12.50;;;4.97;;
1380;SDS011;684;48.342;10.096;2022-09-21T08:03:38;7.53;;;4.60;;
1380;SDS011;684;48.342;10.096;2022-09-21T08:06:05;14.30;;;9.20;;
1380;SDS011;684;48.342;10.096;2022-09-21T08:08:33;8.23;;;5.90;;
1380;SDS011;684;48.342;10.096;2022-09-21T08:11:01;10.60;;;6.23;;
1380;SDS011;684;48.342;10.096;2022-09-21T08:13:29;10.40;;;6.87;;
1380;SDS011;684;48.342;10.096;2022-09-21T08:15:56;7.67;;;5.07;;
1380;SDS011;684;48.342;10.096;2022-09-21T08:18:23;6.87;;;5.13;;
1380;SDS011;684;48.342;10.096;2022-09-21T08:20:55;9.90;;;6.90;;
1380;SDS011;684;48.342;10.096;2022-09-21T08:23:23;7.73;;;4.93;;
1380;SDS011;684;48.342;10.096;2022-09-21T08:25:56;7.10;;;5.13;;
1380;SDS011;684;48.342;10.096;2022-09-21T08:28:24;6.60;;;5.10;;
1380;SDS011;684;48.342;10.096;2022-09-21T08:30:51;32.97;;;20.20;;
1380;SDS011;684;48.342;10.096;2022-09-21T08:33:17;6.57;;;5.10;;
1380;SDS011;684;48.342;10.096;2022-09-21T08:35:50;10.30;;;4.40;;
1380;SDS011;684;48.342;10.096;2022-09-21T08:38:18;5.63;;;4.00;;
1380;SDS011;684;48.342;10.096;2022-09-21T08:40:45;5.63;;;4.07;;
1380;SDS011;684;48.342;10.096;2022-09-21T08:43:13;5.43;;;3.57;;
1380;SDS011;684;48.342;10.096;2022-09-21T08:45:43;6.50;;;4.40;;
1380;SDS011;684;48.342;10.096;2022-09-21T08:48:12;5.00;;;3.73;;
1380;SDS011;684;48.342;10.096;2022-09-21T08:50:44;4.87;;;3.47;;
1380;SDS011;684;48.342;10.096;2022-09-21T08:53:19;7.87;;;4.13;;
1380;SDS011;684;48.342;10.096;2022-09-21T08:55:50;5.57;;;4.00;;
1380;SDS011;684;48.342;10.096;2022-09-21T08:58:21;6.20;;;3.30;;
1380;SDS011;684;48.342;10.096;2022-09-21T09:00:49;5.23;;;3.47;;
1380;SDS011;684;48.342;10.096;2022-09-21T09:03:28;5.20;;;3.53;;
1380;SDS011;684;48.342;10.096;2022-09-21T09:06:10;5.17;;;3.43;;
1380;SDS011;684;48.342;10.096;2022-09-21T09:08:53;4.73;;;2.67;;
1380;SDS011;684;48.342;10.096;2022-09-21T09:11:32;4.70;;;2.60;;
1380;SDS011;684;48.342;10.096;2022-09-21T09:14:12;5.47;;;3.47;;
1380;SDS011;684;48.342;10.096;2022-09-21T09:16:52;7.23;;;3.20;;
1380;SDS011;684;48.342;10.096;2022-09-21T09:19:32;4.97;;;2.63;;
1380;SDS011;684;48.342;10.096;2022-09-21T09:22:05;4.23;;;2.00;;
1380;SDS011;684;48.342;10.096;2022-09-21T09:24:37;4.93;;;2.03;;
1380;SDS011;684;48.342;10.096;2022-09-21T09:27:10;4.00;;;1.80;;
1380;SDS011;684;48.342;10.096;2022-09-21T09:29:43;4.37;;;2.07;;
1380;SDS011;684;48.342;10.096;2022-09-21T09:32:17;3.97;;;1.83;;
1380;SDS011;684;48.342;10.096;2022-09-21T09:34:51;3.93;;;1.87;;
1380;SDS011;684;48.342;10.096;2022-09-21T09:37:24;3.70;;;1.57;;
1380;SDS011;684;48.342;10.096;2022-09-21T09:39:58;4.97;;;2.17;;
1380;SDS011;684;48.342;10.096;2022-09-21T09:42:30;3.60;;;1.70;;
1380;SDS011;684;48.342;10.096;2022-09-21T09:51:01;3.33;;;1.40;;
1380;SDS011;684;48.342;10.096;2022-09-21T09:53:28;4.00;;;1.50;;
1380;SDS011;684;48.342;10.096;2022-09-21T09:55:57;3.73;;;1.10;;
1380;SDS011;684;48.342;10.096;2022-09-21T09:58:36;3.50;;;1.70;;
1380;SDS011;684;48.342;10.096;2022-09-21T10:01:06;6.17;;;1.77;;
1380;SDS011;684;48.342;10.096;2022-09-21T10:03:33;4.23;;;1.77;;
1380;SDS011;684;48.342;10.096;2022-09-21T10:06:01;3.43;;;1.30;;
1380;SDS011;684;48.342;10.096;2022-09-21T10:08:30;3.60;;;1.07;;
1380;SDS011;684;48.342;10.096;2022-09-21T10:11:10;3.90;;;1.00;;
1380;SDS011;684;48.342;10.096;2022-09-21T10:13:38;5.70;;;2.43;;
1380;SDS011;684;48.342;10.096;2022-09-21T10:16:10;3.50;;;1.00;;
1380;SDS011;684;48.342;10.096;2022-09-21T10:18:43;3.73;;;0.90;;
1380;SDS011;684;48.342;10.096;2022-09-21T10:21:16;4.80;;;1.17;;
1380;SDS011;684;48.342;10.096;2022-09-21T10:23:45;3.20;;;1.10;;
1380;SDS011;684;48.342;10.096;2022-09-21T10:26:15;3.60;;;1.00;;
1380;SDS011;684;48.342;10.096;2022-09-21T10:28:53;3.40;;;0.80;;
1380;SDS011;684;48.342;10.096;2022-09-21T10:31:22;3.67;;;1.00;;
1380;SDS011;684;48.342;10.096;2022-09-21T10:33:52;3.17;;;0.87;;
1380;SDS011;684;48.342;10.096;2022-09-21T10:36:30;4.00;;;0.80;;
1380;SDS011;684;48.342;10.096;2022-09-21T10:41:48;2.90;;;0.60;;
1380;SDS011;684;48.342;10.096;2022-09-21T10:44:17;3.00;;;0.63;;
1380;SDS011;684;48.342;10.096;2022-09-21T10:46:45;4.80;;;1.00;;
1380;SDS011;684;48.342;10.096;2022-09-21T10:49:14;3.10;;;0.80;;
1380;SDS011;684;48.342;10.096;2022-09-21T10:51:45;6.30;;;0.97;;
1380;SDS011;684;48.342;10.096;2022-09-21T10:54:16;3.07;;;0.60;;
1380;SDS011;684;48.342;10.096;2022-09-21T10:56:52;3.90;;;0.80;;
1380;SDS011;684;48.342;10.096;2022-09-21T10:59:23;3.57;;;0.90;;
1380;SDS011;684;48.342;10.096;2022-09-21T11:01:52;4.07;;;0.97;;
1380;SDS011;684;48.342;10.096;2022-09-21T11:04:25;3.23;;;0.80;;
1380;SDS011;684;48.342;10.096;2022-09-21T11:07:03;3.70;;;1.03;;
1380;SDS011;684;48.342;10.096;2022-09-21T11:09:39;4.87;;;1.40;;
1380;SDS011;684;48.342;10.096;2022-09-21T11:12:16;4.23;;;1.20;;
1380;SDS011;684;48.342;10.096;2022-09-21T11:14:58;4.30;;;1.40;;
1380;SDS011;684;48.342;10.096;2022-09-21T11:17:35;3.70;;;1.30;;
1380;SDS011;684;48.342;10.096;2022-09-21T11:20:15;3.60;;;1.00;;
1380;SDS011;684;48.342;10.096;2022-09-21T11:22:50;3.50;;;0.93;;
1380;SDS011;684;48.342;10.096;2022-09-21T11:25:25;8.20;;;1.13;;
1380;SDS011;684;48.342;10.096;2022-09-21T11:28:03;5.80;;;1.57;;
1380;SDS011;684;48.342;10.096;2022-09-21T11:30:41;6.10;;;1.23;;
1380;SDS011;684;48.342;10.096;2022-09-21T11:33:22;4.53;;;1.40;;
1380;SDS011;684;48.342;10.096;2022-09-21T11:36:01;4.07;;;1.10;;
1380;SDS011;684;48.342;10.096;2022-09-21T11:38:38;4.13;;;1.30;;
1380;SDS011;684;48.342;10.096;2022-09-21T11:41:19;4.40;;;1.07;;
1380;SDS011;684;48.342;10.096;2022-09-21T11:44:00;4.53;;;1.33;;
1380;SDS011;684;48.342;10.096;2022-09-21T11:46:45;3.97;;;1.10;;
1380;SDS011;684;48.342;10.096;2022-09-21T11:49:23;4.17;;;1.37;;
1380;SDS011;684;48.342;10.096;2022-09-21T11:52:04;4.60;;;1.27;;
1380;SDS011;684;48.342;10.096;2022-09-21T11:54:50;3.33;;;1.00;;
1380;SDS011;684;48.342;10.096;2022-09-21T11:57:26;4.60;;;1.30;;
1380;SDS011;684;48.342;10.096;2022-09-21T12:00:01;4.20;;;1.00;;
1380;SDS011;684;48.342;10.096;2022-09-21T12:02:42;4.00;;;0.90;;
1380;SDS011;684;48.342;10.096;2022-09-21T12:05:30;4.10;;;1.20;;
1380;SDS011;684;48.342;10.096;2022-09-21T12:11:07;3.73;;;0.90;;
1380;SDS011;684;48.342;10.096;2022-09-21T12:13:45;6.23;;;2.57;;
1380;SDS011;684;48.342;10.096;2022-09-21T12:16:22;7.90;;;3.37;;
1380;SDS011;684;48.342;10.096;2022-09-21T12:18:58;4.60;;;1.67;;
1380;SDS011;684;48.342;10.096;2022-09-21T12:21:32;4.47;;;1.43;;
1380;SDS011;684;48.342;10.096;2022-09-21T12:24:02;5.07;;;1.10;;
1380;SDS011;684;48.342;10.096;2022-09-21T12:26:32;3.83;;;1.07;;
1380;SDS011;684;48.342;10.096;2022-09-21T12:29:04;3.70;;;1.10;;
1380;SDS011;684;48.342;10.096;2022-09-21T12:31:38;3.40;;;1.03;;
1380;SDS011;684;48.342;10.096;2022-09-21T12:34:10;4.10;;;0.80;;
1380;SDS011;684;48.342;10.096;2022-09-21T12:36:41;4.67;;;0.97;;
1380;SDS011;684;48.342;10.096;2022-09-21T12:39:12;5.33;;;1.43;;
1380;SDS011;684;48.342;10.096;2022-09-21T12:41:44;4.30;;;1.00;;
1380;SDS011;684;48.342;10.096;2022-09-21T12:44:20;5.10;;;1.20;;
1380;SDS011;684;48.342;10.096;2022-09-21T12:46:54;4.03;;;0.90;;
1380;SDS011;684;48.342;10.096;2022-09-21T12:49:33;3.37;;;0.73;;
1380;SDS011;684;48.342;10.096;2022-09-21T12:52:04;3.53;;;0.67;;
1380;SDS011;684;48.342;10.096;2022-09-21T12:54:33;3.77;;;1.00;;
1380;SDS011;684;48.342;10.096;2022-09-21T12:57:06;4.70;;;0.80;;
1380;SDS011;684;48.342;10.096;2022-09-21T12:59:42;4.33;;;0.90;;
1380;SDS011;684;48.342;10.096;2022-09-21T13:02:18;3.77;;;0.80;;
1380;SDS011;684;48.342;10.096;2022-09-21T13:04:50;5.50;;;1.43;;
1380;SDS011;684;48.342;10.096;2022-09-21T13:07:26;4.90;;;1.00;;
1380;SDS011;684;48.342;10.096;2022-09-21T13:10:18;4.70;;;1.07;;
1380;SDS011;684;48.342;10.096;2022-09-21T13:12:56;5.00;;;2.00;;
1380;SDS011;684;48.342;10.096;2022-09-21T13:15:28;4.30;;;1.33;;
1380;SDS011;684;48.342;10.096;2022-09-21T13:17:59;4.10;;;2.13;;
1380;SDS011;684;48.342;10.096;2022-09-21T13:20:27;3.93;;;1.10;;
1380;SDS011;684;48.342;10.096;2022-09-21T13:23:00;3.47;;;0.87;;
1380;SDS011;684;48.342;10.096;2022-09-21T13:25:28;3.60;;;1.10;;
1380;SDS011;684;48.342;10.096;2022-09-21T13:27:59;4.17;;;0.90;;
1380;SDS011;684;48.342;10.096;2022-09-21T13:30:38;4.27;;;1.17;;
1380;SDS011;684;48.342;10.096;2022-09-21T13:36:08;3.70;;;0.93;;
1380;SDS011;684;48.342;10.096;2022-09-21T13:39:14;4.17;;;0.90;;
1380;SDS011;684;48.342;10.096;2022-09-21T13:41:42;8.60;;;3.80;;
1380;SDS011;684;48.342;10.096;2022-09-21T13:44:17;4.57;;;1.70;;
1380;SDS011;684;48.342;10.096;2022-09-21T13:46:59;4.07;;;1.27;;
1380;SDS011;684;48.342;10.096;2022-09-21T13:49:29;3.63;;;0.80;;
1380;SDS011;684;48.342;10.096;2022-09-21T13:52:21;5.60;;;1.67;;
1380;SDS011;684;48.342;10.096;2022-09-21T13:54:52;4.43;;;1.83;;
1380;SDS011;684;48.342;10.096;2022-09-21T13:57:24;3.70;;;1.20;;
1380;SDS011;684;48.342;10.096;2022-09-21T14:00:03;4.57;;;1.23;;
1380;SDS011;684;48.342;10.096;2022-09-21T14:02:53;5.30;;;1.43;;
1380;SDS011;684;48.342;10.096;2022-09-21T14:05:25;3.80;;;1.20;;
1380;SDS011;684;48.342;10.096;2022-09-21T14:07:57;3.40;;;1.00;;
1380;SDS011;684;48.342;10.096;2022-09-21T14:10:26;4.40;;;1.00;;
1380;SDS011;684;48.342;10.096;2022-09-21T14:12:56;4.87;;;1.30;;
1380;SDS011;684;48.342;10.096;2022-09-21T14:15:32;5.03;;;1.03;;
1380;SDS011;684;48.342;10.096;2022-09-21T14:21:16;3.80;;;1.00;;
1380;SDS011;684;48.342;10.096;2022-09-21T14:27:03;5.70;;;1.10;;
1380;SDS011;684;48.342;10.096;2022-09-21T14:29:40;6.23;;;1.00;;
1380;SDS011;684;48.342;10.096;2022-09-21T14:32:13;4.07;;;1.00;;
1380;SDS011;684;48.342;10.096;2022-09-21T14:34:44;4.27;;;1.33;;
1380;SDS011;684;48.342;10.096;2022-09-21T14:37:18;6.37;;;2.03;;
1380;SDS011;684;48.342;10.096;2022-09-21T14:39:51;5.77;;;1.87;;
1380;SDS011;684;48.342;10.096;2022-09-21T14:42:21;5.73;;;1.73;;
1380;SDS011;684;48.342;10.096;2022-09-21T14:44:52;9.33;;;0.90;;
1380;SDS011;684;48.342;10.096;2022-09-21T14:47:27;5.90;;;1.97;;
1380;SDS011;684;48.342;10.096;2022-09-21T14:50:28;3.37;;;1.00;;
1380;SDS011;684;48.342;10.096;2022-09-21T14:53:05;4.43;;;1.20;;
1380;SDS011;684;48.342;10.096;2022-09-21T14:55:50;5.00;;;1.30;;
1380;SDS011;684;48.342;10.096;2022-09-21T14:58:35;4.67;;;1.07;;
1380;SDS011;684;48.342;10.096;2022-09-21T15:01:20;5.30;;;1.50;;
1380;SDS011;684;48.342;10.096;2022-09-21T15:06:53;8.90;;;3.40;;
1380;SDS011;684;48.342;10.096;2022-09-21T15:09:48;5.43;;;1.40;;
1380;SDS011;684;48.342;10.096;2022-09-21T15:12:55;4.90;;;1.20;;
1380;SDS011;684;48.342;10.096;2022-09-21T15:15:28;3.90;;;1.10;;
1380;SDS011;684;48.342;10.096;2022-09-21T15:18:00;5.10;;;1.43;;
1380;SDS011;684;48.342;10.096;2022-09-21T15:20:28;6.40;;;1.23;;
1380;SDS011;684;48.342;10.096;2022-09-21T15:22:58;4.40;;;1.10;;
1380;SDS011;684;48.342;10.096;2022-09-21T15:25:28;3.97;;;1.03;;
1380;SDS011;684;48.342;10.096;2022-09-21T15:27:57;4.60;;;1.00;;
1380;SDS011;684;48.342;10.096;2022-09-21T15:30:25;3.40;;;0.83;;
1380;SDS011;684;48.342;10.096;2022-09-21T15:32:54;3.90;;;0.80;;
1380;SDS011;684;48.342;10.096;2022-09-21T15:35:23;4.13;;;1.13;;
1380;SDS011;684;48.342;10.096;2022-09-21T15:37:52;6.37;;;1.20;;
1380;SDS011;684;48.342;10.096;2022-09-21T15:40:21;3.90;;;1.00;;
1380;SDS011;684;48.342;10.096;2022-09-21T15:45:45;3.60;;;0.90;;
1380;SDS011;684;48.342;10.096;2022-09-21T15:48:15;3.70;;;1.10;;
1380;SDS011;684;48.342;10.096;2022-09-21T15:50:43;3.80;;;1.13;;
1380;SDS011;684;48.342;10.096;2022-09-21T15:53:14;4.97;;;1.50;;
1380;SDS011;684;48.342;10.096;2022-09-21T15:55:46;4.27;;;1.20;;
1380;SDS011;684;48.342;10.096;2022-09-21T15:58:23;4.13;;;1.37;;
1380;SDS011;684;48.342;10.096;2022-09-21T16:01:01;3.80;;;1.23;;
1380;SDS011;684;48.342;10.096;2022-09-21T16:03:34;3.87;;;1.07;;
1380;SDS011;684;48.342;10.096;2022-09-21T16:06:16;3.67;;;1.00;;